Time;durP1;ratioP1;P1;durP2;ratioP2;P2;SDS_P1;SDS_P2;PMS_P1;PMS_P2;Temp;Humidity;BMP_temperature;BMP_pressure;BME280_temperature;BME280_humidity;BME280_pressure;Samples;Min_cycle;Max_cycle;Signal;HPM_P1;HPM_P2
2023/06/04 00:00:43;;;;;;;9.65;3.67;;;12.10;99.90;;;;;;5119842;28;20103;-56
2023/06/04 00:03:09;;;;;;;9.38;3.17;;;12.10;99.90;;;;;;5119905;28;20061;-56
2023/06/04 00:05:35;;;;;;;9.93;3.38;;;12.00;99.90;;;;;;5120436;28;20043;-56
2023/06/04 00:08:01;;;;;;;9.93;3.38;;;11.90;99.90;;;;;;5119039;28;20075;-54
2023/06/04 00:10:26;;;;;;;8.52;3.22;;;11.90;99.90;;;;;;5119811;28;20055;-56
2023/06/04 00:12:52;;;;;;;10.48;3.58;;;12.00;99.90;;;;;;5120636;28;20047;-56
2023/06/04 00:15:18;;;;;;;11.00;3.55;;;11.90;99.90;;;;;;5119774;28;20047;-56
2023/06/04 00:17:44;;;;;;;10.95;3.90;;;12.00;99.90;;;;;;5120115;28;20047;-56
2023/06/04 00:20:10;;;;;;;10.18;3.50;;;11.90;99.90;;;;;;5119735;28;20079;-56
2023/06/04 00:22:36;;;;;;;8.55;3.00;;;12.00;99.90;;;;;;5119790;28;20040;-56
2023/06/04 00:25:03;;;;;;;11.50;3.05;;;11.90;99.90;;;;;;5120143;28;20103;-56
2023/06/04 00:27:28;;;;;;;12.02;2.95;;;11.70;99.90;;;;;;5119571;28;20047;-56
2023/06/04 00:29:54;;;;;;;10.18;3.17;;;11.70;99.90;;;;;;5120509;28;20036;-56
2023/06/04 00:32:20;;;;;;;8.25;2.88;;;11.70;99.90;;;;;;5119451;28;20051;-56
2023/06/04 00:34:57;;;;;;;8.13;2.80;;;11.80;99.90;;;;;;5119987;28;20123;-57
2023/06/04 00:37:28;;;;;;;8.95;3.00;;;11.80;99.90;;;;;;5119526;28;20817;-57
2023/06/04 00:39:53;;;;;;;12.27;3.40;;;11.70;99.90;;;;;;5119651;28;20047;-55
2023/06/04 00:42:19;;;;;;;7.47;2.80;;;11.70;99.90;;;;;;5118290;28;20055;-56
2023/06/04 00:44:45;;;;;;;9.65;3.08;;;11.70;99.90;;;;;;5119120;28;20028;-57
2023/06/04 00:47:19;;;;;;;11.13;3.25;;;11.80;99.90;;;;;;5118890;28;20054;-56
2023/06/04 00:49:45;;;;;;;8.70;3.10;;;11.80;99.90;;;;;;5119306;28;20044;-55
2023/06/04 00:52:14;;;;;;;8.57;2.90;;;11.80;99.90;;;;;;5117770;28;20545;-57
2023/06/04 00:54:40;;;;;;;11.20;3.00;;;11.80;99.90;;;;;;5119231;28;20150;-55
2023/06/04 00:57:08;;;;;;;12.77;3.28;;;11.70;99.90;;;;;;5119277;28;20050;-55
2023/06/04 00:59:37;;;;;;;8.88;3.08;;;11.80;99.90;;;;;;5119506;28;20047;-56
2023/06/04 01:02:13;;;;;;;11.55;3.50;;;11.90;99.90;;;;;;5118629;28;20050;-56
2023/06/04 01:04:45;;;;;;;9.63;3.42;;;11.90;99.90;;;;;;5119207;27;20051;-55
2023/06/04 01:07:14;;;;;;;9.88;3.55;;;11.90;99.90;;;;;;5119023;28;20063;-56
2023/06/04 01:09:40;;;;;;;11.70;3.60;;;11.80;99.90;;;;;;5119287;28;20095;-56
2023/06/04 01:12:10;;;;;;;12.02;3.67;;;11.80;99.90;;;;;;5119047;28;20991;-56
2023/06/04 01:14:35;;;;;;;11.38;3.67;;;11.80;99.90;;;;;;5118920;28;20172;-57
2023/06/04 01:17:23;;;;;;;9.52;4.00;;;11.70;99.90;;;;;;5119468;28;20503;-56
2023/06/04 01:20:20;;;;;;;12.02;3.67;;;11.70;99.90;;;;;;5119179;27;20114;-56
2023/06/04 01:22:56;;;;;;;11.68;4.45;;;11.70;99.90;;;;;;5118424;28;20043;-56
2023/06/04 01:25:41;;;;;;;10.75;3.40;;;11.60;99.90;;;;;;5119286;28;20055;-57
2023/06/04 01:28:10;;;;;;;13.48;4.35;;;11.60;99.90;;;;;;5118399;28;20075;-54
2023/06/04 01:30:42;;;;;;;10.15;3.53;;;11.80;99.90;;;;;;5117080;28;20090;-57
2023/06/04 01:33:10;;;;;;;13.43;3.47;;;11.80;99.90;;;;;;5118822;28;20051;-56
2023/06/04 01:35:36;;;;;;;12.98;3.33;;;11.70;99.90;;;;;;5118479;28;20044;-57
2023/06/04 01:38:03;;;;;;;9.38;3.28;;;11.80;99.90;;;;;;5118963;28;20051;-56
2023/06/04 01:40:29;;;;;;;9.20;3.30;;;11.60;99.90;;;;;;5118401;28;20043;-56
2023/06/04 01:42:55;;;;;;;14.60;3.75;;;11.50;99.90;;;;;;5118915;28;20075;-56
2023/06/04 01:45:26;;;;;;;10.00;3.67;;;11.50;99.90;;;;;;5118531;28;20389;-56
2023/06/04 01:47:52;;;;;;;10.68;3.88;;;11.50;99.90;;;;;;5118354;28;20055;-56
2023/06/04 01:50:18;;;;;;;11.05;3.38;;;11.60;99.90;;;;;;5118299;28;20070;-56
2023/06/04 01:52:44;;;;;;;11.35;3.60;;;11.50;99.90;;;;;;5118574;28;20035;-56
2023/06/04 01:55:13;;;;;;;11.38;3.42;;;11.40;99.90;;;;;;5118462;28;20035;-57
2023/06/04 01:57:40;;;;;;;10.77;4.35;;;11.50;99.90;;;;;;5117732;28;20050;-54
2023/06/04 02:00:09;;;;;;;12.07;4.43;;;11.50;99.90;;;;;;5100283;28;20057;-56
2023/06/04 02:02:35;;;;;;;8.38;3.30;;;11.40;99.90;;;;;;5117946;28;20040;-56
2023/06/04 02:05:02;;;;;;;9.52;3.65;;;11.40;99.90;;;;;;5118391;28;20044;-57
2023/06/04 02:07:27;;;;;;;12.95;3.92;;;11.40;99.90;;;;;;5117612;28;20047;-58
2023/06/04 02:09:53;;;;;;;10.20;4.15;;;11.40;99.90;;;;;;5118102;28;20050;-56
2023/06/04 02:12:19;;;;;;;9.25;3.72;;;11.40;99.90;;;;;;5118193;28;20039;-55
2023/06/04 02:14:47;;;;;;;9.05;3.60;;;11.30;99.90;;;;;;5117661;28;20048;-55
2023/06/04 02:17:13;;;;;;;12.00;3.70;;;11.30;99.90;;;;;;5118141;28;20040;-56
2023/06/04 02:19:44;;;;;;;8.45;3.83;;;11.20;99.90;;;;;;5099694;28;20069;-56
2023/06/04 02:22:13;;;;;;;10.43;3.90;;;11.30;99.90;;;;;;5117854;28;20085;-57
2023/06/04 02:24:42;;;;;;;15.13;7.32;;;11.20;99.90;;;;;;5117905;28;20048;-56
2023/06/04 02:27:08;;;;;;;10.27;4.43;;;11.20;99.90;;;;;;5117985;28;20040;-57
2023/06/04 02:29:34;;;;;;;9.73;4.53;;;11.20;99.90;;;;;;5117852;28;20031;-57
2023/06/04 02:31:59;;;;;;;8.73;3.58;;;11.10;99.90;;;;;;5116779;28;20073;-56
2023/06/04 02:34:25;;;;;;;15.18;4.90;;;11.10;99.90;;;;;;5117893;28;20643;-56
2023/06/04 02:36:51;;;;;;;10.45;3.75;;;11.20;99.90;;;;;;5117957;28;20503;-56
2023/06/04 02:39:18;;;;;;;10.35;4.40;;;11.10;99.90;;;;;;5117503;28;20039;-56
2023/06/04 02:41:43;;;;;;;12.75;4.50;;;11.10;99.90;;;;;;5117766;28;20070;-55
2023/06/04 02:44:09;;;;;;;11.35;4.65;;;11.00;99.90;;;;;;5116644;28;20054;-55
2023/06/04 02:46:35;;;;;;;8.00;4.00;;;10.90;99.90;;;;;;5116675;28;20107;-55
2023/06/04 02:49:00;;;;;;;9.45;4.47;;;10.90;99.90;;;;;;5117648;28;20048;-57
2023/06/04 02:51:28;;;;;;;12.23;4.63;;;10.90;99.90;;;;;;5118045;28;20040;-56
2023/06/04 02:53:54;;;;;;;9.65;4.10;;;10.90;99.90;;;;;;5117857;28;20100;-55
2023/06/04 02:56:20;;;;;;;12.38;4.70;;;10.90;99.90;;;;;;5116360;28;20105;-55
2023/06/04 02:58:55;;;;;;;10.00;4.68;;;10.90;99.90;;;;;;5117257;28;20042;-57
2023/06/04 03:01:21;;;;;;;10.85;5.07;;;11.00;99.90;;;;;;5115262;28;20550;-55
2023/06/04 03:03:47;;;;;;;10.55;4.68;;;10.90;99.90;;;;;;5117841;28;20048;-57
2023/06/04 03:06:14;;;;;;;12.23;4.70;;;10.90;99.90;;;;;;5117344;28;20075;-56
2023/06/04 03:08:40;;;;;;;11.98;4.88;;;10.90;99.90;;;;;;5116380;28;20157;-57
2023/06/04 03:11:06;;;;;;;11.73;4.90;;;10.70;99.90;;;;;;5120615;28;20039;-56
2023/06/04 03:13:32;;;;;;;10.75;5.40;;;10.90;99.90;;;;;;5121016;28;20044;-56
2023/06/04 03:16:00;;;;;;;14.45;5.97;;;10.90;99.90;;;;;;5121240;28;20043;-55
2023/06/04 03:18:27;;;;;;;11.52;6.32;;;11.00;99.90;;;;;;5121037;28;20044;-56
2023/06/04 03:20:53;;;;;;;10.05;5.55;;;10.80;99.90;;;;;;5119931;28;20051;-57
2023/06/04 03:23:20;;;;;;;11.38;5.53;;;11.00;99.90;;;;;;5120710;28;20047;-56
2023/06/04 03:25:46;;;;;;;11.40;6.22;;;10.80;99.90;;;;;;5119978;28;20120;-55
2023/06/04 03:28:11;;;;;;;10.52;5.55;;;10.80;99.90;;;;;;5121127;28;20043;-54
2023/06/04 03:30:37;;;;;;;12.73;6.38;;;10.90;99.90;;;;;;5120275;28;20062;-55
2023/06/04 03:33:03;;;;;;;11.60;5.65;;;10.80;99.90;;;;;;5119453;28;20103;-57
2023/06/04 03:35:29;;;;;;;11.68;5.78;;;10.90;99.90;;;;;;5120886;28;20163;-56
2023/06/04 03:37:54;;;;;;;11.43;5.65;;;10.90;99.90;;;;;;5120956;28;20044;-56
2023/06/04 03:40:20;;;;;;;11.82;6.03;;;10.80;99.90;;;;;;5120386;28;20059;-57
2023/06/04 03:42:46;;;;;;;10.27;5.45;;;10.90;99.90;;;;;;5119752;28;20039;-55
2023/06/04 03:45:11;;;;;;;13.95;6.10;;;10.90;99.90;;;;;;5120587;28;20054;-56
2023/06/04 03:47:38;;;;;;;11.10;5.97;;;10.80;99.90;;;;;;5120247;28;20110;-57
2023/06/04 03:50:05;;;;;;;11.40;6.20;;;10.90;99.90;;;;;;5120503;28;20052;-57
2023/06/04 03:52:31;;;;;;;9.90;5.60;;;10.90;99.90;;;;;;5119007;28;20054;-56
2023/06/04 03:54:57;;;;;;;13.40;5.88;;;10.90;99.90;;;;;;5119072;28;20075;-55
2023/06/04 03:57:23;;;;;;;13.25;5.65;;;10.90;99.90;;;;;;5120144;28;20130;-56
2023/06/04 03:59:48;;;;;;;14.05;5.68;;;11.00;99.90;;;;;;5121071;28;20032;-56
2023/06/04 04:02:15;;;;;;;11.38;5.40;;;11.00;99.90;;;;;;5119993;28;20039;-57
2023/06/04 04:04:40;;;;;;;12.18;5.93;;;10.90;99.90;;;;;;5120455;28;20067;-56
2023/06/04 04:07:06;;;;;;;13.13;6.57;;;11.10;99.90;;;;;;5120199;28;20071;-56
2023/06/04 04:09:32;;;;;;;12.25;5.47;;;11.00;99.90;;;;;;5120245;28;20051;-55
2023/06/04 04:11:57;;;;;;;12.07;5.35;;;11.20;99.90;;;;;;5119977;28;20040;-57
2023/06/04 04:14:23;;;;;;;12.18;6.28;;;11.20;99.90;;;;;;5119856;28;20047;-56
2023/06/04 04:16:49;;;;;;;14.70;6.20;;;11.20;99.90;;;;;;5120589;28;20036;-56
2023/06/04 04:19:14;;;;;;;13.20;6.07;;;11.30;99.90;;;;;;5119524;28;20093;-55
2023/06/04 04:21:40;;;;;;;10.15;5.57;;;11.30;99.90;;;;;;5120207;27;20100;-57
2023/06/04 04:24:06;;;;;;;11.70;5.80;;;11.40;99.90;;;;;;5120129;28;20046;-56
2023/06/04 04:26:32;;;;;;;10.30;5.68;;;11.30;99.90;;;;;;5119828;28;20044;-56
2023/06/04 04:28:59;;;;;;;11.05;6.03;;;11.40;99.90;;;;;;5119583;28;20056;-57
2023/06/04 04:31:27;;;;;;;11.95;6.10;;;11.50;99.90;;;;;;5119459;28;20510;-56
2023/06/04 04:33:54;;;;;;;13.95;5.65;;;11.50;99.90;;;;;;5120213;28;20560;-57
2023/06/04 04:36:20;;;;;;;11.00;5.55;;;11.40;99.90;;;;;;5119463;28;20503;-56
2023/06/04 04:38:46;;;;;;;14.05;6.18;;;11.50;99.90;;;;;;5119806;28;20058;-57
2023/06/04 04:41:12;;;;;;;13.52;5.90;;;11.70;99.90;;;;;;5119849;28;20445;-56
2023/06/04 04:43:41;;;;;;;10.07;5.93;;;11.80;99.90;;;;;;5119739;27;20036;-57
2023/06/04 04:46:07;;;;;;;13.32;5.45;;;11.80;99.90;;;;;;5119521;28;20399;-57
2023/06/04 04:48:33;;;;;;;15.50;6.13;;;11.70;99.90;;;;;;5119540;28;20036;-55
2023/06/04 04:50:59;;;;;;;11.20;5.85;;;12.00;99.90;;;;;;5118856;28;20047;-56
2023/06/04 04:53:25;;;;;;;12.80;6.53;;;12.00;99.90;;;;;;5118788;28;20073;-56
2023/06/04 04:55:51;;;;;;;11.50;7.05;;;12.00;99.90;;;;;;5119665;28;20044;-57
2023/06/04 04:58:17;;;;;;;10.98;6.72;;;12.00;99.90;;;;;;5119276;28;20046;-56
2023/06/04 05:00:44;;;;;;;12.63;6.65;;;12.10;99.90;;;;;;5117439;28;20050;-56
2023/06/04 05:03:09;;;;;;;13.80;6.40;;;12.30;99.90;;;;;;5118452;28;20077;-56
2023/06/04 05:05:35;;;;;;;11.52;6.93;;;12.30;99.90;;;;;;5118983;28;20040;-57
2023/06/04 05:08:01;;;;;;;10.65;6.65;;;12.40;99.90;;;;;;5119259;28;20047;-57
2023/06/04 05:10:27;;;;;;;11.35;6.18;;;12.50;99.90;;;;;;5118697;28;20060;-56
2023/06/04 05:12:57;;;;;;;11.93;6.28;;;12.50;99.90;;;;;;5119288;28;20039;-57
2023/06/04 05:15:24;;;;;;;12.48;6.00;;;12.70;99.90;;;;;;5118910;27;20416;-57
2023/06/04 05:17:52;;;;;;;9.82;5.97;;;12.70;99.90;;;;;;5118722;28;20054;-56
2023/06/04 05:20:18;;;;;;;13.02;6.00;;;12.80;99.90;;;;;;5118530;28;20044;-57
2023/06/04 05:22:45;;;;;;;14.55;5.97;;;12.80;99.90;;;;;;5118670;28;20462;-57
2023/06/04 05:25:11;;;;;;;14.02;5.70;;;13.00;99.90;;;;;;5117706;28;20047;-56
2023/06/04 05:27:38;;;;;;;12.95;5.68;;;13.10;99.90;;;;;;5100143;28;20586;-56
2023/06/04 05:30:04;;;;;;;13.15;5.68;;;13.10;99.90;;;;;;5117706;28;20061;-57
2023/06/04 05:32:32;;;;;;;14.23;5.72;;;13.30;99.90;;;;;;5117870;28;20551;-60
2023/06/04 05:34:58;;;;;;;11.95;5.13;;;13.30;99.90;;;;;;5118390;28;20083;-61
2023/06/04 05:37:27;;;;;;;11.65;5.20;;;13.40;99.90;;;;;;5118381;28;20141;-60
2023/06/04 05:39:56;;;;;;;13.80;4.80;;;13.60;99.90;;;;;;5114707;28;20036;-57
2023/06/04 05:42:23;;;;;;;12.38;4.15;;;13.60;99.90;;;;;;5115795;28;20067;-60
2023/06/04 05:44:49;;;;;;;13.20;4.03;;;13.80;99.90;;;;;;5113328;28;20040;-60
2023/06/04 05:47:16;;;;;;;11.77;3.65;;;13.90;99.90;;;;;;5115527;28;20055;-60
2023/06/04 05:49:42;;;;;;;11.10;3.90;;;13.90;99.90;;;;;;5114940;28;20035;-61
2023/06/04 05:52:08;;;;;;;10.70;3.50;;;14.00;99.90;;;;;;5114910;28;20077;-60
2023/06/04 05:54:33;;;;;;;13.90;4.00;;;14.10;99.90;;;;;;5112847;28;20058;-61
2023/06/04 05:56:59;;;;;;;9.25;2.78;;;14.20;99.90;;;;;;5115100;28;20039;-60
2023/06/04 05:59:25;;;;;;;12.85;3.25;;;14.20;99.90;;;;;;5115002;28;20052;-61
2023/06/04 06:01:50;;;;;;;12.07;3.92;;;14.20;99.90;;;;;;5114280;28;20047;-61
2023/06/04 06:04:16;;;;;;;13.45;3.78;;;14.20;99.90;;;;;;5114226;28;20051;-60
2023/06/04 06:06:43;;;;;;;12.57;3.40;;;14.30;99.90;;;;;;5114630;28;20058;-61
2023/06/04 06:09:10;;;;;;;13.48;3.53;;;14.40;99.90;;;;;;5114538;28;20069;-59
2023/06/04 06:11:36;;;;;;;15.18;3.45;;;14.50;99.90;;;;;;5114605;28;20051;-60
2023/06/04 06:14:01;;;;;;;12.15;3.40;;;14.40;99.90;;;;;;5114476;28;20215;-60
2023/06/04 06:16:27;;;;;;;11.77;3.03;;;14.50;99.90;;;;;;5096119;28;20079;-60
2023/06/04 06:18:53;;;;;;;13.27;3.03;;;14.50;99.90;;;;;;5113936;28;20103;-60
2023/06/04 06:21:20;;;;;;;9.88;3.40;;;14.70;99.90;;;;;;5115017;28;20094;-61
2023/06/04 06:23:46;;;;;;;12.73;3.20;;;14.70;99.90;;;;;;5113977;28;20112;-60
2023/06/04 06:26:12;;;;;;;14.55;4.47;;;14.70;99.90;;;;;;5114588;28;20095;-60
2023/06/04 06:28:38;;;;;;;17.58;3.50;;;14.70;99.90;;;;;;5113921;28;20083;-60
2023/06/04 06:31:04;;;;;;;10.23;3.08;;;14.80;99.90;;;;;;5114282;28;20298;-60
2023/06/04 06:33:31;;;;;;;11.88;3.05;;;14.90;99.90;;;;;;5112858;28;20639;-61
2023/06/04 06:35:59;;;;;;;11.88;3.00;;;14.80;99.90;;;;;;5113933;28;20051;-60
2023/06/04 06:38:26;;;;;;;13.10;3.90;;;15.00;99.90;;;;;;5114539;28;20044;-60
2023/06/04 06:40:52;;;;;;;10.50;2.90;;;15.10;99.90;;;;;;5114062;28;20047;-60
2023/06/04 06:43:18;;;;;;;9.30;2.95;;;15.10;99.90;;;;;;5113319;28;20502;-60
2023/06/04 06:45:44;;;;;;;7.57;2.97;;;15.10;99.90;;;;;;5116647;28;20040;-60
2023/06/04 06:48:10;;;;;;;10.68;3.17;;;15.00;99.90;;;;;;5114718;28;20051;-61
2023/06/04 06:50:35;;;;;;;8.48;2.63;;;15.20;99.90;;;;;;5115939;28;20039;-60
2023/06/04 06:53:02;;;;;;;9.77;2.60;;;15.30;99.90;;;;;;5117628;28;20096;-59
2023/06/04 06:55:28;;;;;;;10.13;2.85;;;15.30;99.90;;;;;;5118818;28;20051;-60
2023/06/04 06:57:54;;;;;;;8.00;2.47;;;15.40;99.90;;;;;;5118087;28;20032;-60
2023/06/04 07:00:19;;;;;;;11.82;3.10;;;15.40;99.90;;;;;;5117444;28;20063;-57
2023/06/04 07:02:45;;;;;;;9.13;2.45;;;15.50;99.90;;;;;;5116949;28;20383;-61
2023/06/04 07:05:11;;;;;;;11.77;3.25;;;15.40;99.90;;;;;;5117819;28;20039;-61
2023/06/04 07:07:37;;;;;;;10.75;2.88;;;15.50;99.90;;;;;;5118247;28;20059;-60
2023/06/04 07:10:03;;;;;;;12.20;3.17;;;15.70;99.90;;;;;;5117793;27;20044;-61
2023/06/04 07:12:29;;;;;;;10.10;2.60;;;15.80;99.90;;;;;;5118458;28;20073;-60
2023/06/04 07:14:55;;;;;;;10.68;2.50;;;15.80;99.90;;;;;;5117077;28;20048;-61
2023/06/04 07:17:22;;;;;;;7.90;2.38;;;15.80;99.90;;;;;;5117988;28;20079;-60
2023/06/04 07:19:47;;;;;;;8.93;2.35;;;15.90;99.90;;;;;;5117184;28;20790;-61
2023/06/04 07:22:15;;;;;;;8.65;2.47;;;16.00;99.90;;;;;;5116938;28;20036;-61
2023/06/04 07:24:41;;;;;;;9.45;2.42;;;16.00;99.90;;;;;;5116202;28;20043;-61
2023/06/04 07:27:12;;;;;;;7.47;2.10;;;16.10;99.90;;;;;;5116567;28;20599;-60
2023/06/04 07:29:37;;;;;;;10.13;2.45;;;16.20;99.90;;;;;;5117662;28;20102;-61
2023/06/04 07:32:03;;;;;;;11.55;2.42;;;16.20;99.90;;;;;;5116556;27;20569;-61
2023/06/04 07:34:29;;;;;;;10.38;2.10;;;16.30;99.90;;;;;;5117625;28;20087;-61
2023/06/04 07:36:55;;;;;;;9.80;2.22;;;16.20;99.90;;;;;;5117649;27;20342;-61
2023/06/04 07:39:21;;;;;;;5.10;2.03;;;16.20;99.90;;;;;;5117099;28;20043;-60
2023/06/04 07:41:47;;;;;;;8.95;2.17;;;16.30;99.90;;;;;;5117106;28;20123;-61
2023/06/04 07:44:12;;;;;;;7.55;2.13;;;16.30;99.90;;;;;;5115415;28;20087;-61
2023/06/04 07:46:38;;;;;;;8.95;2.05;;;16.40;99.90;;;;;;5117415;28;20059;-60
2023/06/04 07:49:04;;;;;;;7.75;2.15;;;16.40;99.90;;;;;;5116728;28;20047;-60
2023/06/04 07:51:29;;;;;;;6.82;1.92;;;16.40;99.90;;;;;;5116793;28;20191;-61
2023/06/04 07:53:56;;;;;;;6.03;2.08;;;16.50;99.90;;;;;;5117674;28;20118;-60
2023/06/04 07:56:21;;;;;;;10.65;2.35;;;16.40;99.90;;;;;;5117443;28;20051;-60
2023/06/04 07:58:47;;;;;;;6.93;1.88;;;16.50;99.90;;;;;;5119792;28;20085;-60
2023/06/04 08:01:13;;;;;;;6.13;1.80;;;16.60;99.90;;;;;;5119681;28;20043;-59
2023/06/04 08:03:41;;;;;;;6.22;2.00;;;16.60;99.90;;;;;;5120395;28;20063;-57
2023/06/04 08:06:07;;;;;;;7.50;2.08;;;16.70;99.90;;;;;;5119931;28;20140;-59
2023/06/04 08:08:33;;;;;;;6.88;2.10;;;16.70;99.90;;;;;;5120197;28;20047;-60
2023/06/04 08:10:59;;;;;;;7.20;2.00;;;16.70;99.90;;;;;;5120187;28;20052;-60
2023/06/04 08:13:25;;;;;;;6.05;1.95;;;16.80;99.90;;;;;;5118324;28;20047;-60
2023/06/04 08:15:51;;;;;;;7.93;2.20;;;17.00;99.90;;;;;;5118050;28;20058;-60
2023/06/04 08:18:17;;;;;;;7.95;2.20;;;17.10;99.90;;;;;;5119831;28;20059;-60
2023/06/04 08:20:43;;;;;;;8.52;2.10;;;17.10;99.90;;;;;;5120212;28;20095;-60
2023/06/04 08:23:08;;;;;;;6.32;1.80;;;17.20;99.90;;;;;;5119399;28;20055;-59
2023/06/04 08:25:34;;;;;;;7.85;2.58;;;17.30;99.90;;;;;;5119862;28;20051;-60
2023/06/04 08:28:00;;;;;;;10.48;2.80;;;17.30;99.90;;;;;;5119968;28;20047;-61
2023/06/04 08:30:27;;;;;;;8.13;2.65;;;17.40;99.90;;;;;;5115916;28;20486;-61
2023/06/04 08:32:53;;;;;;;5.85;2.30;;;17.30;99.90;;;;;;5116018;28;20051;-60
2023/06/04 08:35:19;;;;;;;7.32;2.28;;;17.40;99.90;;;;;;5116501;28;20039;-61
2023/06/04 08:37:44;;;;;;;6.80;2.30;;;17.50;99.90;;;;;;5116462;27;20081;-61
2023/06/04 08:40:11;;;;;;;6.80;2.10;;;17.40;99.90;;;;;;5116211;28;20051;-60
2023/06/04 08:42:46;;;;;;;7.93;1.92;;;17.40;99.90;;;;;;5116504;28;20055;-61
2023/06/04 08:45:15;;;;;;;6.15;2.00;;;17.50;99.90;;;;;;5116349;28;20035;-60
2023/06/04 08:47:45;;;;;;;7.32;2.00;;;17.40;99.90;;;;;;5115809;28;20506;-60
2023/06/04 08:50:13;;;;;;;5.50;1.70;;;17.50;99.90;;;;;;5116040;28;20087;-60
2023/06/04 08:52:40;;;;;;;8.48;1.95;;;17.50;99.90;;;;;;5115661;28;20062;-60
2023/06/04 08:55:09;;;;;;;5.07;1.65;;;17.60;99.90;;;;;;5113095;28;20059;-60
2023/06/04 08:57:35;;;;;;;7.25;1.60;;;17.50;99.90;;;;;;5095326;28;20079;-61
2023/06/04 09:00:05;;;;;;;6.55;2.17;;;17.70;99.90;;;;;;5094195;28;20055;-60
2023/06/04 09:02:33;;;;;;;6.00;1.60;;;17.70;99.90;;;;;;5107922;28;20103;-60
2023/06/04 09:05:03;;;;;;;7.00;1.77;;;17.80;99.90;;;;;;5115289;28;20073;-60
2023/06/04 09:07:30;;;;;;;5.88;1.88;;;17.70;99.90;;;;;;5114791;28;20103;-59
2023/06/04 09:09:57;;;;;;;6.78;1.90;;;17.80;99.90;;;;;;5115529;28;20044;-60
2023/06/04 09:12:25;;;;;;;7.03;1.77;;;17.90;99.90;;;;;;5116242;28;20127;-60
2023/06/04 09:14:50;;;;;;;6.68;1.75;;;18.00;99.90;;;;;;5096263;28;20085;-61
2023/06/04 09:17:24;;;;;;;4.47;1.48;;;17.90;99.90;;;;;;5076103;28;20058;-62
2023/06/04 09:19:53;;;;;;;8.80;1.60;;;18.00;99.90;;;;;;5094916;28;20522;-59
2023/06/04 09:22:18;;;;;;;5.75;1.90;;;18.00;99.90;;;;;;5093643;28;20056;-59
2023/06/04 09:24:50;;;;;;;6.88;1.60;;;18.10;99.90;;;;;;5093649;28;20044;-59
2023/06/04 09:27:22;;;;;;;5.85;1.60;;;18.10;99.90;;;;;;5094709;28;20046;-59
2023/06/04 09:29:55;;;;;;;4.93;1.70;;;18.20;99.90;;;;;;5095429;28;20040;-59
2023/06/04 09:32:28;;;;;;;5.82;1.80;;;17.90;99.90;;;;;;5094750;28;20052;-59
2023/06/04 09:34:57;;;;;;;4.90;1.70;;;18.10;99.90;;;;;;5094860;28;20048;-59
2023/06/04 09:37:22;;;;;;;6.32;2.10;;;18.00;99.90;;;;;;5113251;28;20527;-59
2023/06/04 09:39:55;;;;;;;5.72;1.70;;;18.00;99.90;;;;;;5115056;28;20055;-59
2023/06/04 09:42:22;;;;;;;7.60;1.80;;;18.00;99.90;;;;;;5115291;28;20047;-59
2023/06/04 09:44:48;;;;;;;4.95;1.50;;;18.00;99.90;;;;;;5114924;28;20057;-58
2023/06/04 09:47:14;;;;;;;7.32;1.98;;;18.20;99.90;;;;;;5114946;28;20066;-59
2023/06/04 09:49:47;;;;;;;6.57;1.70;;;17.90;99.90;;;;;;5114557;28;20416;-59
2023/06/04 09:52:13;;;;;;;6.07;1.80;;;18.00;99.90;;;;;;5114940;28;20083;-59
2023/06/04 09:54:43;;;;;;;8.15;1.60;;;18.00;99.90;;;;;;5114400;28;20051;-59
2023/06/04 09:57:16;;;;;;;5.68;1.70;;;18.10;99.90;;;;;;5114548;28;20143;-58
2023/06/04 09:59:50;;;;;;;6.80;2.05;;;18.10;99.90;;;;;;5113720;28;20048;-59
2023/06/04 10:02:22;;;;;;;4.63;1.60;;;18.00;99.90;;;;;;5114764;28;20044;-59
2023/06/04 10:04:57;;;;;;;6.22;1.70;;;18.10;99.90;;;;;;5114378;28;20052;-58
2023/06/04 10:07:24;;;;;;;6.60;1.90;;;18.30;99.90;;;;;;5114565;28;20606;-59
2023/06/04 10:09:51;;;;;;;8.35;1.88;;;18.10;99.90;;;;;;5115522;28;20065;-59
2023/06/04 10:12:23;;;;;;;6.55;1.73;;;18.10;99.90;;;;;;5117365;28;20075;-59
2023/06/04 10:15:01;;;;;;;5.00;1.90;;;18.20;99.90;;;;;;5117374;28;20040;-59
2023/06/04 10:17:28;;;;;;;8.00;1.65;;;18.40;99.90;;;;;;5117832;28;20055;-59
2023/06/04 10:19:56;;;;;;;4.68;1.40;;;18.50;99.90;;;;;;5121215;28;20075;-59
2023/06/04 10:22:22;;;;;;;6.30;2.08;;;18.50;99.90;;;;;;5121971;28;20047;-59
2023/06/04 10:24:47;;;;;;;5.03;1.85;;;18.60;99.90;;;;;;5121971;28;20506;-59
2023/06/04 10:27:13;;;;;;;7.13;1.60;;;18.40;99.90;;;;;;5121641;28;20043;-58
2023/06/04 10:29:39;;;;;;;5.88;1.60;;;18.40;99.90;;;;;;5121479;28;20147;-59
2023/06/04 10:32:05;;;;;;;5.60;1.80;;;18.40;99.90;;;;;;5119922;28;20048;-59
2023/06/04 10:34:32;;;;;;;6.03;2.08;;;18.40;99.90;;;;;;5121659;28;20043;-59
2023/06/04 10:36:58;;;;;;;7.40;2.20;;;18.30;99.90;;;;;;5121552;28;20047;-59
2023/06/04 10:39:28;;;;;;;6.45;1.73;;;18.40;99.90;;;;;;5121750;28;20150;-59
2023/06/04 10:42:05;;;;;;;7.53;2.80;;;18.20;99.90;;;;;;5122090;28;20059;-59
2023/06/04 10:44:31;;;;;;;7.53;2.53;;;18.50;99.90;;;;;;5121430;28;20048;-59
2023/06/04 10:46:57;;;;;;;6.22;2.00;;;18.40;99.90;;;;;;5122544;28;20451;-60
2023/06/04 10:49:31;;;;;;;6.00;1.75;;;18.60;99.90;;;;;;5121715;28;20054;-59
2023/06/04 10:52:02;;;;;;;7.10;2.22;;;18.70;99.90;;;;;;5121852;28;20052;-59
2023/06/04 10:54:28;;;;;;;5.25;1.80;;;18.90;99.90;;;;;;5121658;28;20052;-60
2023/06/04 10:56:54;;;;;;;6.07;1.88;;;19.00;99.90;;;;;;5121263;28;20398;-58
2023/06/04 10:59:20;;;;;;;8.50;2.22;;;19.00;99.90;;;;;;5121772;28;20126;-59
2023/06/04 11:01:47;;;;;;;8.20;2.08;;;19.20;99.90;;;;;;5120866;27;20043;-59
2023/06/04 11:04:24;;;;;;;5.75;1.73;;;19.00;99.90;;;;;;5121326;28;20043;-59
2023/06/04 11:07:04;;;;;;;7.60;1.80;;;18.70;99.90;;;;;;5121427;28;20051;-59
2023/06/04 11:09:31;;;;;;;5.80;1.95;;;18.80;99.90;;;;;;5121299;28;20089;-59
2023/06/04 11:11:58;;;;;;;6.10;2.00;;;18.80;99.90;;;;;;5121072;27;20169;-59
2023/06/04 11:14:24;;;;;;;6.63;2.22;;;18.80;99.90;;;;;;5120818;28;20043;-59
2023/06/04 11:16:49;;;;;;;7.40;2.60;;;19.00;99.90;;;;;;5121234;28;20067;-58
2023/06/04 11:19:15;;;;;;;8.07;2.20;;;18.90;99.90;;;;;;5120704;28;20048;-59
2023/06/04 11:21:41;;;;;;;7.60;3.00;;;19.00;99.90;;;;;;5120982;27;20055;-59
2023/06/04 11:24:07;;;;;;;8.48;2.20;;;18.80;99.90;;;;;;5120858;28;20040;-58
2023/06/04 11:26:34;;;;;;;8.27;1.98;;;18.70;99.90;;;;;;5120942;28;20426;-59
2023/06/04 11:29:00;;;;;;;6.72;2.00;;;18.50;99.90;;;;;;5120806;28;20209;-59
2023/06/04 11:31:26;;;;;;;7.60;1.90;;;18.90;99.90;;;;;;5118864;28;20049;-59
2023/06/04 11:33:52;;;;;;;7.40;2.03;;;19.10;99.90;;;;;;5120977;28;20039;-59
2023/06/04 11:36:28;;;;;;;16.00;3.30;;;19.00;99.90;;;;;;5120065;28;20043;-59
2023/06/04 11:38:59;;;;;;;6.90;2.42;;;18.90;99.90;;;;;;5119224;28;20111;-60
2023/06/04 11:41:27;;;;;;;5.90;1.88;;;19.00;99.90;;;;;;5120460;28;20047;-59
2023/06/04 11:43:53;;;;;;;6.70;2.00;;;19.10;99.90;;;;;;5120250;28;20088;-59
2023/06/04 11:46:20;;;;;;;5.78;1.70;;;19.10;99.90;;;;;;5120659;28;20056;-59
2023/06/04 11:48:46;;;;;;;6.00;1.92;;;18.90;99.90;;;;;;5119986;28;20422;-59
2023/06/04 11:51:12;;;;;;;6.68;2.10;;;19.10;99.90;;;;;;5120793;28;20082;-59
2023/06/04 11:53:38;;;;;;;6.28;1.70;;;19.30;99.90;;;;;;5120154;28;20640;-59
2023/06/04 11:56:05;;;;;;;6.07;1.70;;;19.40;99.90;;;;;;5120108;27;20126;-59
2023/06/04 11:58:32;;;;;;;6.45;1.95;;;19.40;99.90;;;;;;5118489;28;20109;-59
2023/06/04 12:00:58;;;;;;;8.75;2.33;;;19.10;99.90;;;;;;5120210;28;20054;-59
2023/06/04 12:03:38;;;;;;;5.80;1.92;;;19.30;99.90;;;;;;5120168;28;20035;-58
2023/06/04 12:06:18;;;;;;;7.60;2.08;;;19.30;99.90;;;;;;5119923;27;20067;-57
2023/06/04 12:08:52;;;;;;;7.55;1.83;;;19.30;99.90;;;;;;5118910;28;20047;-59
2023/06/04 12:11:32;;;;;;;7.13;1.70;;;19.30;99.90;;;;;;5119284;28;20043;-59
2023/06/04 12:14:07;;;;;;;6.57;1.60;;;19.10;99.90;;;;;;5119799;28;20047;-58
2023/06/04 12:16:33;;;;;;;7.03;2.05;;;18.90;99.90;;;;;;5120725;28;20070;-59
2023/06/04 12:19:10;;;;;;;6.10;2.00;;;19.00;99.90;;;;;;5119788;28;20852;-59
2023/06/04 12:21:36;;;;;;;7.25;1.70;;;19.20;99.90;;;;;;5120317;28;20055;-59
2023/06/04 12:24:06;;;;;;;6.63;1.85;;;19.30;99.90;;;;;;5119922;28;20031;-59
2023/06/04 12:26:37;;;;;;;7.22;1.95;;;19.50;99.90;;;;;;5120221;28;20696;-59
2023/06/04 12:29:18;;;;;;;7.07;2.05;;;19.30;99.90;;;;;;5120092;28;20051;-58
2023/06/04 12:31:48;;;;;;;7.80;2.07;;;19.30;99.90;;;;;;5119438;28;20058;-58
2023/06/04 12:34:14;;;;;;;6.38;2.00;;;19.00;99.90;;;;;;5120064;28;20503;-57
2023/06/04 12:36:40;;;;;;;7.40;1.65;;;19.20;99.90;;;;;;5118102;28;20031;-58
2023/06/04 12:39:06;;;;;;;5.93;1.77;;;19.50;99.90;;;;;;5119001;28;20095;-58
2023/06/04 12:41:33;;;;;;;7.15;1.90;;;19.30;99.90;;;;;;5118885;28;20031;-58
2023/06/04 12:44:00;;;;;;;11.25;2.00;;;19.30;99.90;;;;;;5118048;28;20043;-58